Forester — DIUT — position and weather

sailwx.info

Track history (hours):
 
Tides and Currents Weather Stations Pressure Air Temp Water Temp Dewpoint Dewpoint Depression Visibility Wind Speed Wind Dir Waves Ship Positions

Forester

Last reported at 2016-Sep-30 13:33 UTC. Time now 2016-Oct-01 03:15 UTC.
Position N 36°19' W 007°40'.

Length 100 m; draft 6.7 m.

Type: Ship. MMSI: 211233870.

Date/timePositionNaut miles runAvg speedWind from/ knotsBaromVisibWave heightAir tempDewpointWater temp
2016-Sep-30 13:33N 36°19' W 007°40'101 9.6
2016-Sep-30 03:04N 37°03' W 009°33'712.4
2016-Sep-30 02:28N 37°09' W 009°29'3612.4
2016-Sep-29 23:33N 37°43' W 009°12'2412.2
2016-Sep-29 21:33N 38°06' W 009°01'1212.2
2016-Sep-29 20:33N 38°18' W 009°00'1111.1
2016-Sep-29 19:33N 38°29' W 008°57'1 0.4
2016-Sep-29 16:28N 38°30' W 008°56'0 0.0
2016-Sep-29 15:31N 38°30' W 008°56'0 0.0
2016-Sep-29 14:13N 38°30' W 008°56'0 0.0
2016-Sep-29 13:31N 38°30' W 008°56'0 0.0
2016-Sep-29 00:28N 38°30' W 008°56'0 0.0
2016-Sep-28 19:34N 38°30' W 008°56'0 0.0
2016-Sep-28 16:33N 38°30' W 008°56'0 0.0
2016-Sep-28 15:33N 38°30' W 008°56'0 0.0
2016-Sep-28 12:24N 38°30' W 008°56'0 0.0
2016-Sep-28 08:30N 38°30' W 008°56'0 0.0
2016-Sep-28 02:19N 38°30' W 008°56'0 0.0
2016-Sep-28 01:34N 38°30' W 008°56'6 3.0
2016-Sep-27 23:33N 38°25' W 009°01'20 5.1
2016-Sep-27 19:33N 38°04' W 009°03'43 8.6
2016-Sep-27 14:33N 37°21' W 009°05'9 8.7
2016-Sep-27 13:33N 37°14' W 009°10'24 8.0
2016-Sep-27 10:33N 36°50' W 009°15'  
2016-Sep-23 16:33N 36°11' W 003°13'1111.2
2016-Sep-23 15:34N 36°12' W 002°59'2211.1
2016-Sep-23 13:33N 36°14' W 002°32'7310.4
2016-Sep-23 06:32N 36°21' W 001°02'2110.4
2016-Sep-23 04:33N 36°23' W 000°36'1611.1
2016-Sep-23 03:06N 36°25' W 000°16'1710.8
2016-Sep-23 01:33N 36°26' E 000°04'1110.6
2016-Sep-23 00:33N 36°27' E 000°18'4210.1
2016-Sep-22 20:26N 36°34' E 001°09'8811.2
2016-Sep-22 12:32N 36°50' E 002°57'  
Track history (hours):
 
Tides and Currents Weather Stations Pressure Air Temp Water Temp Dewpoint Dewpoint Depression Visibility Wind Speed Wind Dir Waves Ship Positions

Forester

Last reported at 2016-Sep-30 13:33 UTC. Time now 2016-Oct-01 03:15 UTC.
Position N 36°19' W 007°40'.

Length 100 m; draft 6.7 m.

Type: Ship. MMSI: 211233870.

Date/timePositionNaut miles runAvg speedWind from/ knotsBaromVisibWave heightAir tempDewpointWater temp
2016-Sep-30 13:33N 36°19' W 007°40'101 9.6
2016-Sep-30 03:04N 37°03' W 009°33'712.4
2016-Sep-30 02:28N 37°09' W 009°29'3612.4
2016-Sep-29 23:33N 37°43' W 009°12'2412.2
2016-Sep-29 21:33N 38°06' W 009°01'1212.2
2016-Sep-29 20:33N 38°18' W 009°00'1111.1
2016-Sep-29 19:33N 38°29' W 008°57'1 0.4
2016-Sep-29 16:28N 38°30' W 008°56'0 0.0
2016-Sep-29 15:31N 38°30' W 008°56'0 0.0
2016-Sep-29 14:13N 38°30' W 008°56'0 0.0
2016-Sep-29 13:31N 38°30' W 008°56'0 0.0
2016-Sep-29 00:28N 38°30' W 008°56'0 0.0
2016-Sep-28 19:34N 38°30' W 008°56'0 0.0
2016-Sep-28 16:33N 38°30' W 008°56'0 0.0
2016-Sep-28 15:33N 38°30' W 008°56'0 0.0
2016-Sep-28 12:24N 38°30' W 008°56'0 0.0
2016-Sep-28 08:30N 38°30' W 008°56'0 0.0
2016-Sep-28 02:19N 38°30' W 008°56'0 0.0
2016-Sep-28 01:34N 38°30' W 008°56'6 3.0
2016-Sep-27 23:33N 38°25' W 009°01'20 5.1
2016-Sep-27 19:33N 38°04' W 009°03'43 8.6
2016-Sep-27 14:33N 37°21' W 009°05'9 8.7
2016-Sep-27 13:33N 37°14' W 009°10'24 8.0
2016-Sep-27 10:33N 36°50' W 009°15'  
2016-Sep-23 16:33N 36°11' W 003°13'1111.2
2016-Sep-23 15:34N 36°12' W 002°59'2211.1
2016-Sep-23 13:33N 36°14' W 002°32'7310.4
2016-Sep-23 06:32N 36°21' W 001°02'2110.4
2016-Sep-23 04:33N 36°23' W 000°36'1611.1
2016-Sep-23 03:06N 36°25' W 000°16'1710.8
2016-Sep-23 01:33N 36°26' E 000°04'1110.6
2016-Sep-23 00:33N 36°27' E 000°18'4210.1
2016-Sep-22 20:26N 36°34' E 001°09'8811.2
2016-Sep-22 12:32N 36°50' E 002°57'  

Dump ship's entire track history